Overview Statistics Trail Chart Weather Telemetry Raw packets
 

This is the latest recevied weather packets stored in our database for station/object IU1OPQ-3. If no packets are shown the sender has not sent any weather packets the latest 10 day(s).

<< 1 2 3 4 5 6 >>
Time Temp. Humidity Pressure Rain* Wind** Luminosity Snow
1788507601 23.89° C 58% 1020.7 hPa 0 mm - - -
1788506401 26.67° C 52% 1020.9 hPa 0 mm - - -
1788505201 23.89° C 57% 1020.6 hPa 0 mm - - -
1788504001 22.78° C 59% 1020.9 hPa 0 mm - - -
1788502801 22.22° C 60% 1020.6 hPa 0 mm - - -
1788501601 23.33° C 59% 1020.4 hPa 0 mm - - -
1788500401 22.22° C 61% 1020.4 hPa 0 mm - - -
1788499201 22.22° C 62% 1020.3 hPa 0 mm - - -
1788498001 22.22° C 61% 1020 hPa 0 mm - - -
1788496801 22.78° C 59% 1020.3 hPa 0 mm - - -
1788495601 22.78° C 58% 1020.1 hPa 0 mm - - -
1788494401 23.33° C 56% 1020.1 hPa 0 mm - - -
1788493200 23.33° C 56% 1019.8 hPa 0 mm - - -
1788492000 23.33° C 56% 1019.9 hPa 0 mm - - -
1788490801 23.33° C 57% 1020.1 hPa 0 mm - - -
1788489600 23.89° C 56% 1020.1 hPa 0 mm - - -
1788488400 23.89° C 57% 1020 hPa 0 mm - - -
1788487201 24.44° C 59% 1020.2 hPa 0 mm - - -
1788486001 24.44° C 59% 1020.2 hPa 0 mm - - -
1788484800 23.89° C 61% 1020.2 hPa 0 mm - - -
1788483600 23.89° C 60% 1020.2 hPa 0 mm - - -
1788482401 24.44° C 54% 1020.4 hPa 0 mm - - -
1788481201 24.44° C 54% 1020.4 hPa 0 mm - - -
1788480000 25° C 54% 1020.4 hPa 0 mm - - -
1788478801 25° C 55% 1020.5 hPa 0 mm - - -

* Rain latest hour (hover to see other rain measurements)
** Current wind speed in m/s (hover to see current wind gust speed)